sensor_id;sensor_type;location;lat;lon;timestamp;temperature;humidity
38866;DHT22;62686;48.984;8.394;2023-11-22T00:13:01;7.10;99.90
38866;DHT22;62686;48.984;8.394;2023-11-22T00:15:30;7.00;99.90
38866;DHT22;62686;48.984;8.394;2023-11-22T00:17:58;7.00;99.90
38866;DHT22;62686;48.984;8.394;2023-11-22T00:20:30;7.00;99.90
38866;DHT22;62686;48.984;8.394;2023-11-22T00:23:00;6.90;99.90
38866;DHT22;62686;48.984;8.394;2023-11-22T00:25:30;6.90;99.90
38866;DHT22;62686;48.984;8.394;2023-11-22T00:28:01;6.80;99.90
38866;DHT22;62686;48.984;8.394;2023-11-22T00:30:32;6.80;99.90
38866;DHT22;62686;48.984;8.394;2023-11-22T00:35:51;6.70;99.90
38866;DHT22;62686;48.984;8.394;2023-11-22T00:38:23;6.60;99.90
38866;DHT22;62686;48.984;8.394;2023-11-22T00:43:36;6.40;99.90
38866;DHT22;62686;48.984;8.394;2023-11-22T00:46:05;6.40;99.90
38866;DHT22;62686;48.984;8.394;2023-11-22T00:48:33;6.30;99.90
38866;DHT22;62686;48.984;8.394;2023-11-22T00:51:02;6.20;99.90
38866;DHT22;62686;48.984;8.394;2023-11-22T00:53:35;6.20;99.90
38866;DHT22;62686;48.984;8.394;2023-11-22T00:56:05;6.20;99.90
38866;DHT22;62686;48.984;8.394;2023-11-22T00:58:35;6.20;99.90
38866;DHT22;62686;48.984;8.394;2023-11-22T01:01:04;6.10;99.90
38866;DHT22;62686;48.984;8.394;2023-11-22T01:03:33;6.10;99.90
38866;DHT22;62686;48.984;8.394;2023-11-22T01:06:02;6.10;99.90
38866;DHT22;62686;48.984;8.394;2023-11-22T01:08:33;6.10;99.90
38866;DHT22;62686;48.984;8.394;2023-11-22T01:11:04;6.00;99.90
38866;DHT22;62686;48.984;8.394;2023-11-22T01:13:33;6.00;99.90
38866;DHT22;62686;48.984;8.394;2023-11-22T01:16:10;5.90;99.90
38866;DHT22;62686;48.984;8.394;2023-11-22T01:18:39;6.00;99.90
38866;DHT22;62686;48.984;8.394;2023-11-22T01:21:09;5.90;99.90
38866;DHT22;62686;48.984;8.394;2023-11-22T01:23:37;5.80;99.90
38866;DHT22;62686;48.984;8.394;2023-11-22T01:26:06;5.70;99.90
38866;DHT22;62686;48.984;8.394;2023-11-22T01:28:34;5.60;99.90
38866;DHT22;62686;48.984;8.394;2023-11-22T01:31:02;5.50;99.90
38866;DHT22;62686;48.984;8.394;2023-11-22T01:33:33;5.40;99.90
38866;DHT22;62686;48.984;8.394;2023-11-22T01:36:03;5.40;99.90
38866;DHT22;62686;48.984;8.394;2023-11-22T01:38:32;5.40;99.90
38866;DHT22;62686;48.984;8.394;2023-11-22T01:41:01;5.30;99.90
38866;DHT22;62686;48.984;8.394;2023-11-22T01:43:29;5.40;99.90
38866;DHT22;62686;48.984;8.394;2023-11-22T01:45:58;5.30;99.90
38866;DHT22;62686;48.984;8.394;2023-11-22T01:48:27;5.30;99.90
38866;DHT22;62686;48.984;8.394;2023-11-22T01:50:58;5.30;99.90
38866;DHT22;62686;48.984;8.394;2023-11-22T01:53:27;5.30;99.90
38866;DHT22;62686;48.984;8.394;2023-11-22T01:55:59;5.20;99.90
38866;DHT22;62686;48.984;8.394;2023-11-22T01:58:28;5.20;99.90
38866;DHT22;62686;48.984;8.394;2023-11-22T02:00:58;5.10;99.90
38866;DHT22;62686;48.984;8.394;2023-11-22T02:03:27;5.10;99.90
38866;DHT22;62686;48.984;8.394;2023-11-22T02:05:57;5.00;99.90
38866;DHT22;62686;48.984;8.394;2023-11-22T02:08:27;5.00;99.90
38866;DHT22;62686;48.984;8.394;2023-11-22T02:10:59;5.00;99.90
38866;DHT22;62686;48.984;8.394;2023-11-22T02:13:30;5.00;99.90
38866;DHT22;62686;48.984;8.394;2023-11-22T02:15:59;5.00;99.90
38866;DHT22;62686;48.984;8.394;2023-11-22T02:18:28;5.00;99.90
38866;DHT22;62686;48.984;8.394;2023-11-22T02:20:58;5.00;99.90
38866;DHT22;62686;48.984;8.394;2023-11-22T02:23:29;4.90;99.90
38866;DHT22;62686;48.984;8.394;2023-11-22T02:25:59;4.90;99.90
38866;DHT22;62686;48.984;8.394;2023-11-22T02:28:28;4.90;99.90
38866;DHT22;62686;48.984;8.394;2023-11-22T02:30:56;4.90;99.90
38866;DHT22;62686;48.984;8.394;2023-11-22T02:33:28;4.80;99.90
38866;DHT22;62686;48.984;8.394;2023-11-22T02:35:57;4.80;99.90
38866;DHT22;62686;48.984;8.394;2023-11-22T02:38:30;4.80;99.90
38866;DHT22;62686;48.984;8.394;2023-11-22T02:40:58;4.70;99.90
38866;DHT22;62686;48.984;8.394;2023-11-22T02:43:26;4.60;99.90
38866;DHT22;62686;48.984;8.394;2023-11-22T02:45:55;4.60;99.90
38866;DHT22;62686;48.984;8.394;2023-11-22T02:48:27;4.60;99.90
38866;DHT22;62686;48.984;8.394;2023-11-22T02:50:56;4.60;99.90
38866;DHT22;62686;48.984;8.394;2023-11-22T02:53:25;4.60;99.90
38866;DHT22;62686;48.984;8.394;2023-11-22T02:55:59;4.50;99.90
38866;DHT22;62686;48.984;8.394;2023-11-22T02:58:28;4.60;99.90
38866;DHT22;62686;48.984;8.394;2023-11-22T03:00:57;4.60;99.90
38866;DHT22;62686;48.984;8.394;2023-11-22T03:03:26;4.60;99.90
38866;DHT22;62686;48.984;8.394;2023-11-22T03:05:57;4.60;99.90
38866;DHT22;62686;48.984;8.394;2023-11-22T03:08:26;4.60;99.90
38866;DHT22;62686;48.984;8.394;2023-11-22T03:10:56;4.60;99.90
38866;DHT22;62686;48.984;8.394;2023-11-22T03:13:26;4.60;99.90
38866;DHT22;62686;48.984;8.394;2023-11-22T03:16:03;4.60;99.90
38866;DHT22;62686;48.984;8.394;2023-11-22T03:18:32;4.60;99.90
38866;DHT22;62686;48.984;8.394;2023-11-22T03:21:00;4.60;99.90
38866;DHT22;62686;48.984;8.394;2023-11-22T03:23:32;4.60;99.90
38866;DHT22;62686;48.984;8.394;2023-11-22T03:26:02;4.60;99.90
38866;DHT22;62686;48.984;8.394;2023-11-22T03:28:31;4.60;99.90
38866;DHT22;62686;48.984;8.394;2023-11-22T03:31:01;4.70;99.90
38866;DHT22;62686;48.984;8.394;2023-11-22T03:33:32;4.70;99.90
38866;DHT22;62686;48.984;8.394;2023-11-22T03:36:00;4.50;99.90
38866;DHT22;62686;48.984;8.394;2023-11-22T03:38:30;4.50;99.90
38866;DHT22;62686;48.984;8.394;2023-11-22T03:41:02;4.50;99.90
38866;DHT22;62686;48.984;8.394;2023-11-22T03:43:32;4.50;99.90
38866;DHT22;62686;48.984;8.394;2023-11-22T03:46:00;4.50;99.90
38866;DHT22;62686;48.984;8.394;2023-11-22T03:48:29;4.40;99.90
38866;DHT22;62686;48.984;8.394;2023-11-22T03:50:57;4.40;99.90
38866;DHT22;62686;48.984;8.394;2023-11-22T03:53:26;4.30;99.90
38866;DHT22;62686;48.984;8.394;2023-11-22T03:55:57;4.20;99.90
38866;DHT22;62686;48.984;8.394;2023-11-22T03:58:28;4.30;99.90
38866;DHT22;62686;48.984;8.394;2023-11-22T04:00:56;4.30;99.90
38866;DHT22;62686;48.984;8.394;2023-11-22T04:03:25;4.30;99.90
38866;DHT22;62686;48.984;8.394;2023-11-22T04:05:55;4.30;99.90
38866;DHT22;62686;48.984;8.394;2023-11-22T04:08:23;4.40;99.90
38866;DHT22;62686;48.984;8.394;2023-11-22T04:10:52;4.30;99.90
38866;DHT22;62686;48.984;8.394;2023-11-22T04:13:23;4.40;99.90
38866;DHT22;62686;48.984;8.394;2023-11-22T04:15:54;4.40;99.90
38866;DHT22;62686;48.984;8.394;2023-11-22T04:18:22;4.40;99.90
38866;DHT22;62686;48.984;8.394;2023-11-22T04:20:51;4.40;99.90
38866;DHT22;62686;48.984;8.394;2023-11-22T04:23:19;4.30;99.90
38866;DHT22;62686;48.984;8.394;2023-11-22T04:25:48;4.20;99.90
38866;DHT22;62686;48.984;8.394;2023-11-22T04:28:20;4.20;99.90
38866;DHT22;62686;48.984;8.394;2023-11-22T04:30:49;4.20;99.90
38866;DHT22;62686;48.984;8.394;2023-11-22T04:33:19;4.10;99.90
38866;DHT22;62686;48.984;8.394;2023-11-22T04:35:48;4.10;99.90
38866;DHT22;62686;48.984;8.394;2023-11-22T04:38:17;4.00;99.90
38866;DHT22;62686;48.984;8.394;2023-11-22T04:40:46;4.00;99.90
38866;DHT22;62686;48.984;8.394;2023-11-22T04:43:14;3.90;99.90
38866;DHT22;62686;48.984;8.394;2023-11-22T04:45:43;3.90;99.90
38866;DHT22;62686;48.984;8.394;2023-11-22T04:48:11;3.80;99.90
38866;DHT22;62686;48.984;8.394;2023-11-22T04:53:32;3.70;99.90
38866;DHT22;62686;48.984;8.394;2023-11-22T04:56:01;3.70;99.90
38866;DHT22;62686;48.984;8.394;2023-11-22T04:58:32;3.60;99.90
38866;DHT22;62686;48.984;8.394;2023-11-22T05:01:01;3.40;99.90
38866;DHT22;62686;48.984;8.394;2023-11-22T05:03:31;3.30;99.90
38866;DHT22;62686;48.984;8.394;2023-11-22T05:06:01;3.20;99.90
38866;DHT22;62686;48.984;8.394;2023-11-22T05:08:29;3.00;99.90
38866;DHT22;62686;48.984;8.394;2023-11-22T05:10:59;3.00;99.90
38866;DHT22;62686;48.984;8.394;2023-11-22T05:13:29;2.90;99.90
38866;DHT22;62686;48.984;8.394;2023-11-22T05:15:58;2.80;99.90
38866;DHT22;62686;48.984;8.394;2023-11-22T05:18:27;2.70;99.90
38866;DHT22;62686;48.984;8.394;2023-11-22T05:20:56;2.60;99.90
38866;DHT22;62686;48.984;8.394;2023-11-22T05:23:24;2.50;99.90
38866;DHT22;62686;48.984;8.394;2023-11-22T05:25:53;2.40;99.90
38866;DHT22;62686;48.984;8.394;2023-11-22T05:55:39;2.30;99.90
38866;DHT22;62686;48.984;8.394;2023-11-22T05:58:09;2.30;99.90
38866;DHT22;62686;48.984;8.394;2023-11-22T06:00:38;2.40;99.90
38866;DHT22;62686;48.984;8.394;2023-11-22T07:30:29;1.10;99.90
38866;DHT22;62686;48.984;8.394;2023-11-22T07:33:01;1.10;99.90
38866;DHT22;62686;48.984;8.394;2023-11-22T07:35:29;1.10;99.90
38866;DHT22;62686;48.984;8.394;2023-11-22T07:37:59;1.10;99.90
38866;DHT22;62686;48.984;8.394;2023-11-22T07:40:28;1.10;99.90
38866;DHT22;62686;48.984;8.394;2023-11-22T07:42:56;1.20;99.90
38866;DHT22;62686;48.984;8.394;2023-11-22T07:45:25;1.20;99.90
38866;DHT22;62686;48.984;8.394;2023-11-22T07:47:56;1.20;99.90
38866;DHT22;62686;48.984;8.394;2023-11-22T07:50:26;1.20;99.90
38866;DHT22;62686;48.984;8.394;2023-11-22T07:52:56;1.30;99.90
38866;DHT22;62686;48.984;8.394;2023-11-22T07:55:24;1.40;99.90
38866;DHT22;62686;48.984;8.394;2023-11-22T07:57:53;1.40;99.90
38866;DHT22;62686;48.984;8.394;2023-11-22T08:00:23;1.50;99.90
38866;DHT22;62686;48.984;8.394;2023-11-22T08:02:52;1.50;99.90
38866;DHT22;62686;48.984;8.394;2023-11-22T08:05:22;1.60;99.90
38866;DHT22;62686;48.984;8.394;2023-11-22T08:07:52;1.50;99.90
38866;DHT22;62686;48.984;8.394;2023-11-22T08:10:21;1.50;99.90
38866;DHT22;62686;48.984;8.394;2023-11-22T08:12:52;1.50;99.90
38866;DHT22;62686;48.984;8.394;2023-11-22T08:15:21;1.60;99.90
38866;DHT22;62686;48.984;8.394;2023-11-22T08:17:49;1.70;99.90
38866;DHT22;62686;48.984;8.394;2023-11-22T08:20:18;1.70;99.90
38866;DHT22;62686;48.984;8.394;2023-11-22T08:22:48;1.70;99.90
38866;DHT22;62686;48.984;8.394;2023-11-22T08:25:18;1.80;99.90
38866;DHT22;62686;48.984;8.394;2023-11-22T08:27:46;1.80;99.90
38866;DHT22;62686;48.984;8.394;2023-11-22T08:30:15;1.90;99.90
38866;DHT22;62686;48.984;8.394;2023-11-22T08:32:45;1.90;99.90
38866;DHT22;62686;48.984;8.394;2023-11-22T08:35:20;2.00;99.90
38866;DHT22;62686;48.984;8.394;2023-11-22T08:37:51;2.00;99.90
38866;DHT22;62686;48.984;8.394;2023-11-22T08:40:24;2.10;99.90
38866;DHT22;62686;48.984;8.394;2023-11-22T08:42:53;2.10;99.90
38866;DHT22;62686;48.984;8.394;2023-11-22T08:45:21;2.10;99.90
38866;DHT22;62686;48.984;8.394;2023-11-22T08:47:50;2.10;99.90
38866;DHT22;62686;48.984;8.394;2023-11-22T08:50:18;2.30;99.90
38866;DHT22;62686;48.984;8.394;2023-11-22T08:55:31;2.70;99.90
38866;DHT22;62686;48.984;8.394;2023-11-22T08:58:00;2.80;99.90
38866;DHT22;62686;48.984;8.394;2023-11-22T09:00:29;2.80;99.90
38866;DHT22;62686;48.984;8.394;2023-11-22T09:02:59;2.80;99.90
38866;DHT22;62686;48.984;8.394;2023-11-22T09:05:28;2.90;99.90
38866;DHT22;62686;48.984;8.394;2023-11-22T09:07:56;2.90;99.90
38866;DHT22;62686;48.984;8.394;2023-11-22T09:10:28;2.90;99.90
38866;DHT22;62686;48.984;8.394;2023-11-22T09:12:58;2.80;99.90
38866;DHT22;62686;48.984;8.394;2023-11-22T09:15:27;2.80;99.90
38866;DHT22;62686;48.984;8.394;2023-11-22T09:17:56;2.80;99.90
38866;DHT22;62686;48.984;8.394;2023-11-22T09:20:25;2.80;99.90
38866;DHT22;62686;48.984;8.394;2023-11-22T09:22:54;2.70;99.90
38866;DHT22;62686;48.984;8.394;2023-11-22T09:25:24;2.70;99.90
38866;DHT22;62686;48.984;8.394;2023-11-22T09:27:55;2.80;99.90
38866;DHT22;62686;48.984;8.394;2023-11-22T09:30:27;2.90;99.90
38866;DHT22;62686;48.984;8.394;2023-11-22T09:33:06;3.10;99.90
38866;DHT22;62686;48.984;8.394;2023-11-22T09:35:36;3.40;99.90
38866;DHT22;62686;48.984;8.394;2023-11-22T09:38:06;3.70;99.90
38866;DHT22;62686;48.984;8.394;2023-11-22T09:40:40;4.10;99.90
38866;DHT22;62686;48.984;8.394;2023-11-22T09:43:12;4.60;99.90
38866;DHT22;62686;48.984;8.394;2023-11-22T09:45:44;4.80;99.90
38866;DHT22;62686;48.984;8.394;2023-11-22T09:48:15;4.90;99.90
38866;DHT22;62686;48.984;8.394;2023-11-22T09:50:50;4.80;99.90
38866;DHT22;62686;48.984;8.394;2023-11-22T09:53:29;4.60;99.90
38866;DHT22;62686;48.984;8.394;2023-11-22T09:56:01;4.40;99.90
38866;DHT22;62686;48.984;8.394;2023-11-22T09:58:34;4.20;99.90
38866;DHT22;62686;48.984;8.394;2023-11-22T10:01:03;4.10;99.90
38866;DHT22;62686;48.984;8.394;2023-11-22T10:03:43;4.00;99.90
38866;DHT22;62686;48.984;8.394;2023-11-22T10:06:15;4.00;99.90
38866;DHT22;62686;48.984;8.394;2023-11-22T10:08:48;4.10;99.90
38866;DHT22;62686;48.984;8.394;2023-11-22T10:11:37;4.30;99.90
38866;DHT22;62686;48.984;8.394;2023-11-22T10:14:22;4.40;99.90
38866;DHT22;62686;48.984;8.394;2023-11-22T10:16:59;4.50;99.90
38866;DHT22;62686;48.984;8.394;2023-11-22T10:19:28;4.50;99.90
38866;DHT22;62686;48.984;8.394;2023-11-22T10:22:03;4.50;99.90
38866;DHT22;62686;48.984;8.394;2023-11-22T10:24:33;4.50;99.90
38866;DHT22;62686;48.984;8.394;2023-11-22T10:27:03;4.40;99.90
38866;DHT22;62686;48.984;8.394;2023-11-22T10:29:34;4.50;99.90
38866;DHT22;62686;48.984;8.394;2023-11-22T10:32:03;4.50;99.90
38866;DHT22;62686;48.984;8.394;2023-11-22T10:34:34;4.50;99.90
38866;DHT22;62686;48.984;8.394;2023-11-22T10:37:03;4.60;99.90
38866;DHT22;62686;48.984;8.394;2023-11-22T10:39:32;4.80;99.90
38866;DHT22;62686;48.984;8.394;2023-11-22T10:42:01;5.00;99.90
38866;DHT22;62686;48.984;8.394;2023-11-22T10:44:33;5.10;99.90
38866;DHT22;62686;48.984;8.394;2023-11-22T10:47:03;5.10;99.90
38866;DHT22;62686;48.984;8.394;2023-11-22T10:49:32;5.00;99.90
38866;DHT22;62686;48.984;8.394;2023-11-22T10:52:02;4.90;99.90
38866;DHT22;62686;48.984;8.394;2023-11-22T10:54:33;4.90;99.90
38866;DHT22;62686;48.984;8.394;2023-11-22T10:57:04;5.10;99.90
38866;DHT22;62686;48.984;8.394;2023-11-22T10:59:34;5.30;99.90
38866;DHT22;62686;48.984;8.394;2023-11-22T11:02:03;5.60;99.90
38866;DHT22;62686;48.984;8.394;2023-11-22T11:04:38;5.70;99.90
38866;DHT22;62686;48.984;8.394;2023-11-22T11:07:12;5.80;99.90
38866;DHT22;62686;48.984;8.394;2023-11-22T11:09:44;5.70;99.90
38866;DHT22;62686;48.984;8.394;2023-11-22T11:12:14;5.90;99.90
38866;DHT22;62686;48.984;8.394;2023-11-22T11:14:44;6.00;99.90
38866;DHT22;62686;48.984;8.394;2023-11-22T11:17:14;5.90;99.90
38866;DHT22;62686;48.984;8.394;2023-11-22T11:19:42;5.70;99.90
38866;DHT22;62686;48.984;8.394;2023-11-22T11:22:11;5.50;99.90
38866;DHT22;62686;48.984;8.394;2023-11-22T11:24:41;5.30;99.90
38866;DHT22;62686;48.984;8.394;2023-11-22T11:27:11;5.20;99.90
38866;DHT22;62686;48.984;8.394;2023-11-22T11:29:40;5.10;99.90
38866;DHT22;62686;48.984;8.394;2023-11-22T11:32:14;5.10;99.90
38866;DHT22;62686;48.984;8.394;2023-11-22T11:34:50;5.10;99.90
38866;DHT22;62686;48.984;8.394;2023-11-22T11:37:19;5.10;99.90
38866;DHT22;62686;48.984;8.394;2023-11-22T11:39:52;5.20;99.90
38866;DHT22;62686;48.984;8.394;2023-11-22T11:42:21;5.20;99.90
38866;DHT22;62686;48.984;8.394;2023-11-22T11:44:52;5.20;99.90
38866;DHT22;62686;48.984;8.394;2023-11-22T11:47:35;5.20;99.90
38866;DHT22;62686;48.984;8.394;2023-11-22T11:50:04;5.30;99.90
38866;DHT22;62686;48.984;8.394;2023-11-22T11:52:33;5.40;99.90
38866;DHT22;62686;48.984;8.394;2023-11-22T11:55:03;5.50;99.90
38866;DHT22;62686;48.984;8.394;2023-11-22T11:57:32;5.50;99.90
38866;DHT22;62686;48.984;8.394;2023-11-22T12:00:03;5.50;99.90
38866;DHT22;62686;48.984;8.394;2023-11-22T12:02:34;5.50;99.90
38866;DHT22;62686;48.984;8.394;2023-11-22T12:05:04;5.40;99.90
38866;DHT22;62686;48.984;8.394;2023-11-22T12:07:35;5.40;99.90
38866;DHT22;62686;48.984;8.394;2023-11-22T12:10:04;5.30;99.90
38866;DHT22;62686;48.984;8.394;2023-11-22T12:12:34;5.30;99.90
38866;DHT22;62686;48.984;8.394;2023-11-22T12:15:05;5.30;99.90
38866;DHT22;62686;48.984;8.394;2023-11-22T12:17:36;5.30;99.90
38866;DHT22;62686;48.984;8.394;2023-11-22T12:20:11;5.40;99.90
38866;DHT22;62686;48.984;8.394;2023-11-22T12:22:43;5.40;99.90
38866;DHT22;62686;48.984;8.394;2023-11-22T12:25:13;5.30;99.90
38866;DHT22;62686;48.984;8.394;2023-11-22T12:27:41;5.40;99.90
38866;DHT22;62686;48.984;8.394;2023-11-22T12:30:28;5.50;99.90
38866;DHT22;62686;48.984;8.394;2023-11-22T12:33:02;5.50;99.90
38866;DHT22;62686;48.984;8.394;2023-11-22T12:35:32;5.40;99.90
38866;DHT22;62686;48.984;8.394;2023-11-22T12:38:02;5.30;99.90
38866;DHT22;62686;48.984;8.394;2023-11-22T12:40:32;5.30;99.90
38866;DHT22;62686;48.984;8.394;2023-11-22T12:43:01;5.40;99.90
38866;DHT22;62686;48.984;8.394;2023-11-22T12:45:31;5.50;99.90
38866;DHT22;62686;48.984;8.394;2023-11-22T12:48:22;5.50;99.90
38866;DHT22;62686;48.984;8.394;2023-11-22T12:50:52;5.70;99.90
38866;DHT22;62686;48.984;8.394;2023-11-22T12:53:21;6.00;99.90
38866;DHT22;62686;48.984;8.394;2023-11-22T12:55:50;6.00;99.90
38866;DHT22;62686;48.984;8.394;2023-11-22T12:58:20;6.00;99.90
38866;DHT22;62686;48.984;8.394;2023-11-22T13:00:52;5.90;99.90
38866;DHT22;62686;48.984;8.394;2023-11-22T13:03:27;6.00;99.90
38866;DHT22;62686;48.984;8.394;2023-11-22T13:05:55;6.00;99.90
38866;DHT22;62686;48.984;8.394;2023-11-22T13:08:24;6.00;99.90
38866;DHT22;62686;48.984;8.394;2023-11-22T13:10:56;5.90;99.90
38866;DHT22;62686;48.984;8.394;2023-11-22T13:13:25;6.00;99.90
38866;DHT22;62686;48.984;8.394;2023-11-22T13:15:54;5.90;99.90
38866;DHT22;62686;48.984;8.394;2023-11-22T13:18:23;5.80;99.90
38866;DHT22;62686;48.984;8.394;2023-11-22T13:20:54;5.70;99.90
38866;DHT22;62686;48.984;8.394;2023-11-22T13:23:23;5.70;99.90
38866;DHT22;62686;48.984;8.394;2023-11-22T13:25:51;5.70;99.90
38866;DHT22;62686;48.984;8.394;2023-11-22T13:28:20;5.60;99.90
38866;DHT22;62686;48.984;8.394;2023-11-22T13:30:50;5.60;99.90
38866;DHT22;62686;48.984;8.394;2023-11-22T13:33:18;5.60;99.90
38866;DHT22;62686;48.984;8.394;2023-11-22T13:35:48;5.50;99.90
38866;DHT22;62686;48.984;8.394;2023-11-22T13:38:17;5.40;99.90
38866;DHT22;62686;48.984;8.394;2023-11-22T13:40:46;5.30;99.90
38866;DHT22;62686;48.984;8.394;2023-11-22T13:43:14;5.30;99.90
38866;DHT22;62686;48.984;8.394;2023-11-22T13:45:44;5.20;99.90
38866;DHT22;62686;48.984;8.394;2023-11-22T13:48:12;5.10;99.90
38866;DHT22;62686;48.984;8.394;2023-11-22T13:50:44;4.90;99.90
38866;DHT22;62686;48.984;8.394;2023-11-22T13:53:14;4.80;99.90
38866;DHT22;62686;48.984;8.394;2023-11-22T13:55:46;4.70;99.90
38866;DHT22;62686;48.984;8.394;2023-11-22T13:58:19;4.70;99.90
38866;DHT22;62686;48.984;8.394;2023-11-22T14:00:48;4.80;99.90
38866;DHT22;62686;48.984;8.394;2023-11-22T14:03:19;4.80;99.90
38866;DHT22;62686;48.984;8.394;2023-11-22T14:05:49;4.90;99.90
38866;DHT22;62686;48.984;8.394;2023-11-22T14:08:19;5.00;99.90
38866;DHT22;62686;48.984;8.394;2023-11-22T14:10:47;5.00;99.90
38866;DHT22;62686;48.984;8.394;2023-11-22T14:13:15;5.00;99.90
38866;DHT22;62686;48.984;8.394;2023-11-22T14:15:45;5.00;99.90
38866;DHT22;62686;48.984;8.394;2023-11-22T14:18:13;5.10;99.90
38866;DHT22;62686;48.984;8.394;2023-11-22T14:20:42;5.00;99.90
38866;DHT22;62686;48.984;8.394;2023-11-22T14:23:10;5.00;99.90
38866;DHT22;62686;48.984;8.394;2023-11-22T14:25:40;5.00;99.90
38866;DHT22;62686;48.984;8.394;2023-11-22T14:28:09;4.90;99.90
38866;DHT22;62686;48.984;8.394;2023-11-22T14:30:37;4.80;99.90
38866;DHT22;62686;48.984;8.394;2023-11-22T14:33:07;4.70;99.90
38866;DHT22;62686;48.984;8.394;2023-11-22T14:35:36;4.70;99.90
38866;DHT22;62686;48.984;8.394;2023-11-22T14:38:05;4.70;99.90
38866;DHT22;62686;48.984;8.394;2023-11-22T14:40:33;4.60;99.90
38866;DHT22;62686;48.984;8.394;2023-11-22T14:43:05;4.60;99.90
38866;DHT22;62686;48.984;8.394;2023-11-22T14:45:34;4.60;99.90
38866;DHT22;62686;48.984;8.394;2023-11-22T14:48:04;4.60;99.90
38866;DHT22;62686;48.984;8.394;2023-11-22T14:50:33;4.60;99.90
38866;DHT22;62686;48.984;8.394;2023-11-22T14:53:02;4.60;99.90
38866;DHT22;62686;48.984;8.394;2023-11-22T14:55:31;4.60;99.90
38866;DHT22;62686;48.984;8.394;2023-11-22T14:58:06;4.70;99.90
38866;DHT22;62686;48.984;8.394;2023-11-22T15:00:35;4.70;99.90
38866;DHT22;62686;48.984;8.394;2023-11-22T15:03:04;4.70;99.90
38866;DHT22;62686;48.984;8.394;2023-11-22T15:05:34;4.70;99.90
38866;DHT22;62686;48.984;8.394;2023-11-22T15:08:03;4.60;99.90
38866;DHT22;62686;48.984;8.394;2023-11-22T15:10:32;4.60;99.90
38866;DHT22;62686;48.984;8.394;2023-11-22T15:13:01;4.50;99.90
38866;DHT22;62686;48.984;8.394;2023-11-22T15:15:32;4.50;99.90
38866;DHT22;62686;48.984;8.394;2023-11-22T15:18:00;4.50;99.90
38866;DHT22;62686;48.984;8.394;2023-11-22T15:20:29;4.50;99.90
38866;DHT22;62686;48.984;8.394;2023-11-22T15:22:57;4.40;99.90
38866;DHT22;62686;48.984;8.394;2023-11-22T15:25:26;4.40;99.90
38866;DHT22;62686;48.984;8.394;2023-11-22T15:27:55;4.40;99.90
38866;DHT22;62686;48.984;8.394;2023-11-22T15:30:26;4.30;99.90
38866;DHT22;62686;48.984;8.394;2023-11-22T15:32:55;4.30;99.90
38866;DHT22;62686;48.984;8.394;2023-11-22T15:35:24;4.20;99.90
38866;DHT22;62686;48.984;8.394;2023-11-22T15:37:53;4.20;99.90
38866;DHT22;62686;48.984;8.394;2023-11-22T15:40:23;4.00;99.90
38866;DHT22;62686;48.984;8.394;2023-11-22T15:42:51;3.90;99.90
38866;DHT22;62686;48.984;8.394;2023-11-22T15:45:20;3.80;99.90
38866;DHT22;62686;48.984;8.394;2023-11-22T15:47:49;3.70;99.90
38866;DHT22;62686;48.984;8.394;2023-11-22T15:50:18;3.50;99.90
38866;DHT22;62686;48.984;8.394;2023-11-22T15:52:47;3.50;99.90
38866;DHT22;62686;48.984;8.394;2023-11-22T15:55:15;3.40;99.90
38866;DHT22;62686;48.984;8.394;2023-11-22T15:57:44;3.30;99.90
38866;DHT22;62686;48.984;8.394;2023-11-22T16:00:13;3.40;99.90
38866;DHT22;62686;48.984;8.394;2023-11-22T16:02:42;3.50;99.90
38866;DHT22;62686;48.984;8.394;2023-11-22T16:05:11;3.50;99.90
38866;DHT22;62686;48.984;8.394;2023-11-22T16:07:42;3.40;99.90
38866;DHT22;62686;48.984;8.394;2023-11-22T16:10:11;3.50;99.90
38866;DHT22;62686;48.984;8.394;2023-11-22T16:12:39;3.50;99.90
38866;DHT22;62686;48.984;8.394;2023-11-22T16:15:08;3.50;99.90
38866;DHT22;62686;48.984;8.394;2023-11-22T16:17:38;3.50;99.90
38866;DHT22;62686;48.984;8.394;2023-11-22T16:20:08;3.50;99.90
38866;DHT22;62686;48.984;8.394;2023-11-22T16:22:39;3.50;99.90
38866;DHT22;62686;48.984;8.394;2023-11-22T16:25:13;3.50;99.90
38866;DHT22;62686;48.984;8.394;2023-11-22T16:27:41;3.60;99.90
38866;DHT22;62686;48.984;8.394;2023-11-22T16:30:10;3.50;99.90
38866;DHT22;62686;48.984;8.394;2023-11-22T16:32:38;3.40;99.90
38866;DHT22;62686;48.984;8.394;2023-11-22T16:35:08;3.40;99.90
38866;DHT22;62686;48.984;8.394;2023-11-22T16:37:38;3.30;99.90
38866;DHT22;62686;48.984;8.394;2023-11-22T16:40:07;3.10;99.90
38866;DHT22;62686;48.984;8.394;2023-11-22T16:42:38;2.90;99.90
38866;DHT22;62686;48.984;8.394;2023-11-22T16:45:08;2.70;99.90
38866;DHT22;62686;48.984;8.394;2023-11-22T16:47:37;2.50;99.90
38866;DHT22;62686;48.984;8.394;2023-11-22T16:50:07;2.40;99.90
38866;DHT22;62686;48.984;8.394;2023-11-22T16:52:36;2.20;99.90
38866;DHT22;62686;48.984;8.394;2023-11-22T16:55:05;1.90;99.90
38866;DHT22;62686;48.984;8.394;2023-11-22T16:57:38;1.80;99.90
38866;DHT22;62686;48.984;8.394;2023-11-22T17:00:07;1.60;99.90
38866;DHT22;62686;48.984;8.394;2023-11-22T17:02:44;1.50;99.90
38866;DHT22;62686;48.984;8.394;2023-11-22T17:05:16;1.40;99.90
38866;DHT22;62686;48.984;8.394;2023-11-22T17:07:46;1.30;99.90
38866;DHT22;62686;48.984;8.394;2023-11-22T17:10:14;1.30;99.90
38866;DHT22;62686;48.984;8.394;2023-11-22T17:12:44;1.30;99.90
38866;DHT22;62686;48.984;8.394;2023-11-22T17:15:13;1.20;99.90
38866;DHT22;62686;48.984;8.394;2023-11-22T17:17:42;1.20;99.90
38866;DHT22;62686;48.984;8.394;2023-11-22T17:20:11;1.30;99.90
38866;DHT22;62686;48.984;8.394;2023-11-22T17:22:39;1.30;99.90
38866;DHT22;62686;48.984;8.394;2023-11-22T17:25:08;1.40;99.90
38866;DHT22;62686;48.984;8.394;2023-11-22T17:27:38;1.40;99.90
38866;DHT22;62686;48.984;8.394;2023-11-22T17:30:10;1.50;99.90
38866;DHT22;62686;48.984;8.394;2023-11-22T17:32:39;1.50;99.90
38866;DHT22;62686;48.984;8.394;2023-11-22T17:35:10;1.50;99.90
38866;DHT22;62686;48.984;8.394;2023-11-22T17:37:39;1.50;99.90
38866;DHT22;62686;48.984;8.394;2023-11-22T17:40:08;1.50;99.90
38866;DHT22;62686;48.984;8.394;2023-11-22T17:42:37;1.30;99.90
38866;DHT22;62686;48.984;8.394;2023-11-22T17:45:06;1.20;99.90
38866;DHT22;62686;48.984;8.394;2023-11-22T17:47:37;1.20;99.90
38866;DHT22;62686;48.984;8.394;2023-11-22T17:50:07;1.10;99.90
38866;DHT22;62686;48.984;8.394;2023-11-22T17:52:35;1.00;99.90
38866;DHT22;62686;48.984;8.394;2023-11-22T17:55:04;0.90;99.90
38866;DHT22;62686;48.984;8.394;2023-11-22T17:57:33;0.90;99.90
38866;DHT22;62686;48.984;8.394;2023-11-22T18:00:05;1.00;99.90
38866;DHT22;62686;48.984;8.394;2023-11-22T18:02:37;1.10;99.90
38866;DHT22;62686;48.984;8.394;2023-11-22T18:05:07;1.00;99.90
38866;DHT22;62686;48.984;8.394;2023-11-22T18:07:35;1.00;99.90
38866;DHT22;62686;48.984;8.394;2023-11-22T18:10:05;0.90;99.90
38866;DHT22;62686;48.984;8.394;2023-11-22T18:12:34;0.90;99.90
38866;DHT22;62686;48.984;8.394;2023-11-22T18:15:02;0.80;99.90
38866;DHT22;62686;48.984;8.394;2023-11-22T18:17:32;0.70;99.90
38866;DHT22;62686;48.984;8.394;2023-11-22T18:20:02;0.60;99.90